Washington, DC (20076)

1:21 AM EST on February 10, 2016 (GMT -0500)
Bethesda | | Change Station
CLOSE
Current Station
Personal Weather Station
Location: Bethesda, MD
Elevation: 236 ft
Nearby Weather Stations

Elev 236 ft 38.96 °N, 77.10 °W | Updated 9 seconds ago

Overcast
Overcast
31.0 °F
Feels Like 31 °F
N
0.0
Wind Variable Wind from North
Gusts 0.0 mph

Today
High -- | Low -- °F
--% Chance of Precip.
Yesterday
High -- | Low -- °F
Precip. -- in
Pressure 29.71 in
Visibility 10.0 miles
Clouds Overcast 5000 ft
Windchill 31 °F
Dew Point Not available.
Humidity Not available.
Rainfall 0.00 in
Snow Depth Not available.
7:06 AM 5:39 PM
Waxing Crescent, 4% visible
METAR KDCA 100552Z 30009KT 10SM OVC050 00/M07 A2971 RMK AO2 SLP061 T00001072 10017 20000 52005
Pressure 29.71 in
Visibility 10.0 miles
Clouds Overcast 5000 ft
Windchill 31 °F
Dew Point Not available.
Humidity Not available.
Rainfall 0.00 in
Snow Depth Not available.
7:06 AM 5:39 PM
Waxing Crescent, 4% visible
METAR KDCA 100552Z 30009KT 10SM OVC050 00/M07 A2971 RMK AO2 SLP061 T00001072 10017 20000 52005

10-Day Weather Forecast

Almanac

Astronomy

Feb. 10, 2016 Rise Set
Actual Time
Civil Twilight
Nautical Twilight
Astronomical Twilight
Moon
Length of Visible Light
Length of Day
Tomorrow will be .
, % of the Moon is Illuminated

Today's Extremes

State Highs State Lows

Community

WunderPhotos

Upload Photos

1,891,826 photos uploaded!

WunderBlog® & News

Nearby

Air Quality

  Air Quality AQ Index Pollutant
Not available.

Snow Depth

Station Depth Elevation

Earthquake Activity

City Distance Mag. Time & Date
Minimum magnitude displayed is 2.5.

Coastal Water Temperatures

Place Temperature

Stations

Nearby Weather Stations

Station Location Temp. Windchill Dew Point Humidity Wind Precip. Elev Updated Type
                   

Watches & Warnings

There are currently no watches in effect.